Time;durP1;ratioP1;P1;durP2;ratioP2;P2;SDS_P1;SDS_P2;PMS_P1;PMS_P2;Temp;Humidity;BMP_temperature;BMP_pressure;BME280_temperature;BME280_humidity;BME280_pressure;Samples;Min_cycle;Max_cycle;Signal;HPM_P1;HPM_P2
2022/07/30 00:02:04;;;;;;;43.05;25.55;;;26.60;99.90;;;;;;5055939;28;20032;-61
2022/07/30 00:04:32;;;;;;;46.40;26.70;;;26.60;99.90;;;;;;5044973;28;20096;-63
2022/07/30 00:06:59;;;;;;;45.42;26.65;;;26.60;99.90;;;;;;5036004;28;20552;-62
2022/07/30 00:09:26;;;;;;;53.63;29.17;;;26.60;99.90;;;;;;5054802;28;20029;-63
2022/07/30 00:11:53;;;;;;;55.28;29.08;;;26.60;99.90;;;;;;5055823;28;20021;-64
2022/07/30 00:14:20;;;;;;;44.38;27.35;;;26.60;99.90;;;;;;5049697;28;20048;-63
2022/07/30 00:16:47;;;;;;;48.45;26.48;;;26.60;99.90;;;;;;5049514;28;20421;-63
2022/07/30 00:19:14;;;;;;;43.50;27.00;;;26.60;99.90;;;;;;5035693;28;20052;-63
2022/07/30 00:21:40;;;;;;;40.10;24.95;;;26.50;99.90;;;;;;5035592;28;20036;-65
2022/07/30 00:24:07;;;;;;;47.38;26.90;;;26.60;99.90;;;;;;5035572;28;20104;-64
2022/07/30 00:26:34;;;;;;;48.60;28.05;;;26.60;99.90;;;;;;5035434;28;20073;-63
2022/07/30 00:29:01;;;;;;;42.30;28.48;;;26.70;99.90;;;;;;5035534;28;20032;-64
2022/07/30 00:31:27;;;;;;;52.17;30.17;;;26.60;99.90;;;;;;5035429;28;20057;-64
2022/07/30 00:33:54;;;;;;;62.08;33.25;;;26.60;99.90;;;;;;5035438;28;20049;-63
2022/07/30 00:36:21;;;;;;;57.00;35.15;;;26.60;99.90;;;;;;5035253;28;20048;-64
2022/07/30 00:38:47;;;;;;;59.78;36.00;;;26.60;99.90;;;;;;5035307;28;20025;-64
2022/07/30 00:41:14;;;;;;;67.50;35.00;;;26.60;99.90;;;;;;5035226;28;20055;-63
2022/07/30 00:43:40;;;;;;;46.95;31.02;;;26.60;99.90;;;;;;5035181;28;20033;-63
2022/07/30 00:46:07;;;;;;;42.13;27.42;;;26.60;99.90;;;;;;5035272;28;20513;-64
2022/07/30 00:48:33;;;;;;;42.22;25.17;;;26.60;99.90;;;;;;5035195;28;20021;-63
2022/07/30 00:51:00;;;;;;;58.08;28.27;;;26.60;99.90;;;;;;5035098;28;20029;-63
2022/07/30 00:53:26;;;;;;;47.53;29.00;;;26.70;99.90;;;;;;5034913;28;20029;-63
2022/07/30 00:55:53;;;;;;;50.83;30.42;;;26.70;99.90;;;;;;5035017;28;20478;-63
2022/07/30 00:58:19;;;;;;;45.50;29.65;;;26.70;99.90;;;;;;5040826;28;20029;-63
2022/07/30 01:00:46;;;;;;;45.53;28.40;;;26.70;99.90;;;;;;5039908;28;20032;-63
2022/07/30 01:03:12;;;;;;;51.45;30.42;;;26.70;99.90;;;;;;5034821;28;20390;-63
2022/07/30 01:05:39;;;;;;;45.17;28.33;;;26.80;99.90;;;;;;5034676;28;20028;-63
2022/07/30 01:08:05;;;;;;;47.35;30.50;;;26.80;99.90;;;;;;5034695;28;20552;-63
2022/07/30 01:10:32;;;;;;;53.05;32.28;;;26.90;99.90;;;;;;5034384;28;20390;-63
2022/07/30 01:13:00;;;;;;;44.88;30.98;;;26.80;99.90;;;;;;5033935;28;20021;-63
2022/07/30 01:15:28;;;;;;;45.90;28.70;;;26.90;99.90;;;;;;5054879;28;20061;-63
2022/07/30 01:17:59;;;;;;;37.53;24.05;;;26.90;99.90;;;;;;5061864;28;20021;-63
2022/07/30 01:20:32;;;;;;;25.45;17.92;;;26.90;99.90;;;;;;5054406;28;20103;-63
2022/07/30 01:23:01;;;;;;;32.85;18.20;;;26.90;99.90;;;;;;5054432;28;20498;-63
2022/07/30 01:25:30;;;;;;;26.50;17.80;;;27.00;99.90;;;;;;5054350;28;20048;-63
2022/07/30 01:28:03;;;;;;;30.10;17.55;;;27.00;99.90;;;;;;5059110;28;20790;-63
2022/07/30 01:30:33;;;;;;;19.05;13.05;;;27.00;99.90;;;;;;5063109;28;20027;-63
2022/07/30 01:33:00;;;;;;;18.17;11.82;;;27.00;99.90;;;;;;5057695;28;20092;-64
2022/07/30 01:35:30;;;;;;;22.27;15.30;;;27.10;99.90;;;;;;5059489;28;20016;-63
2022/07/30 01:37:59;;;;;;;21.30;14.93;;;27.10;99.90;;;;;;5059353;28;20048;-64
2022/07/30 01:40:27;;;;;;;22.15;15.50;;;27.10;99.90;;;;;;5063934;28;20067;-63
2022/07/30 01:42:57;;;;;;;17.38;11.73;;;27.10;99.90;;;;;;5059348;28;20033;-63
2022/07/30 01:45:25;;;;;;;14.55;10.73;;;27.10;99.90;;;;;;5053875;28;20033;-64
2022/07/30 01:47:53;;;;;;;13.48;9.30;;;27.20;99.90;;;;;;5054331;28;20017;-62
2022/07/30 01:50:21;;;;;;;17.30;9.88;;;27.20;99.90;;;;;;5053980;28;20102;-63
2022/07/30 01:52:51;;;;;;;13.90;10.23;;;27.20;99.90;;;;;;5054038;28;20021;-61
2022/07/30 01:55:24;;;;;;;16.77;8.90;;;27.20;99.90;;;;;;5053893;28;20036;-62
2022/07/30 01:57:53;;;;;;;14.70;8.57;;;27.20;99.90;;;;;;5054089;28;20057;-61
2022/07/30 02:00:20;;;;;;;16.73;10.15;;;27.20;99.90;;;;;;5053791;28;20025;-62
2022/07/30 02:02:47;;;;;;;17.15;11.15;;;27.20;99.90;;;;;;5053834;28;20490;-62
2022/07/30 02:05:13;;;;;;;17.88;10.15;;;27.30;99.90;;;;;;5054196;28;20470;-62
2022/07/30 02:07:48;;;;;;;14.38;9.30;;;27.40;99.90;;;;;;5053848;28;20051;-62
2022/07/30 02:10:29;;;;;;;11.70;6.80;;;27.50;99.90;;;;;;5053863;28;20021;-62
2022/07/30 02:12:59;;;;;;;13.43;7.80;;;27.40;99.90;;;;;;5053640;28;20032;-62
2022/07/30 02:15:48;;;;;;;13.52;7.70;;;27.50;99.90;;;;;;5053585;28;20121;-63
2022/07/30 02:18:22;;;;;;;14.32;8.90;;;27.50;99.90;;;;;;5053461;28;20044;-62
2022/07/30 02:20:58;;;;;;;12.40;8.75;;;27.60;99.90;;;;;;5053574;28;20420;-63
2022/07/30 02:23:27;;;;;;;16.00;9.50;;;27.70;99.90;;;;;;5053246;28;20046;-62
2022/07/30 02:25:56;;;;;;;15.32;8.10;;;27.70;99.90;;;;;;5053580;28;20029;-63
2022/07/30 02:28:23;;;;;;;12.90;8.18;;;27.70;99.90;;;;;;5053563;28;20075;-63
2022/07/30 02:30:54;;;;;;;14.90;9.35;;;27.60;99.90;;;;;;5053267;28;20154;-62
2022/07/30 02:33:25;;;;;;;22.85;12.13;;;27.70;99.90;;;;;;5053472;28;20025;-63
2022/07/30 02:35:54;;;;;;;19.00;11.80;;;27.80;99.90;;;;;;5053451;28;20023;-62
2022/07/30 02:38:24;;;;;;;23.33;13.02;;;27.70;99.90;;;;;;5053025;28;20677;-64
2022/07/30 02:40:51;;;;;;;36.33;22.55;;;27.80;99.90;;;;;;5053728;28;20031;-64
2022/07/30 02:43:20;;;;;;;93.30;51.70;;;27.80;99.90;;;;;;5053330;28;20024;-64
2022/07/30 02:45:48;;;;;;;49.97;23.83;;;27.80;99.90;;;;;;5044862;28;20112;-64
2022/07/30 02:48:16;;;;;;;17.63;8.55;;;27.90;99.90;;;;;;5033680;28;20029;-65
2022/07/30 02:50:44;;;;;;;16.65;8.50;;;27.80;99.90;;;;;;5032977;28;20493;-66
2022/07/30 02:53:13;;;;;;;12.18;7.15;;;27.80;99.90;;;;;;5033046;28;20220;-65
2022/07/30 02:55:42;;;;;;;12.18;6.03;;;27.80;99.90;;;;;;5033017;28;20045;-64
2022/07/30 02:58:10;;;;;;;12.13;6.43;;;27.80;99.90;;;;;;5032906;28;20029;-65
2022/07/30 03:00:38;;;;;;;10.55;5.82;;;27.90;99.90;;;;;;5033404;28;20021;-64
2022/07/30 03:03:06;;;;;;;10.52;5.38;;;27.90;99.90;;;;;;5032996;28;20033;-64
2022/07/30 03:05:35;;;;;;;8.18;5.75;;;27.80;99.90;;;;;;5032810;28;20029;-66
2022/07/30 03:08:02;;;;;;;9.38;4.90;;;27.80;99.90;;;;;;5033310;28;20131;-65
2022/07/30 03:10:30;;;;;;;9.15;5.10;;;27.80;99.90;;;;;;5033543;28;20022;-66
2022/07/30 03:12:58;;;;;;;6.72;4.72;;;27.80;99.90;;;;;;5033030;28;20028;-67
2022/07/30 03:15:26;;;;;;;10.45;6.30;;;27.80;99.90;;;;;;5033383;28;20463;-67
2022/07/30 03:17:54;;;;;;;11.30;6.05;;;27.80;99.90;;;;;;5032605;28;20018;-66
2022/07/30 03:20:25;;;;;;;15.43;8.07;;;27.80;99.90;;;;;;5032724;28;20022;-67
2022/07/30 03:22:54;;;;;;;18.53;11.60;;;27.80;99.90;;;;;;5040000;28;20029;-67
2022/07/30 03:25:25;;;;;;;14.63;6.57;;;27.80;99.90;;;;;;5048908;28;20021;-67
2022/07/30 03:27:55;;;;;;;16.35;6.78;;;27.90;99.90;;;;;;5043338;28;20017;-66
2022/07/30 03:30:23;;;;;;;12.77;6.85;;;28.00;99.90;;;;;;5032787;28;20036;-67
2022/07/30 03:32:52;;;;;;;18.88;6.88;;;28.10;99.90;;;;;;5032642;28;20075;-68
2022/07/30 03:35:23;;;;;;;12.30;5.90;;;28.10;99.90;;;;;;5048830;28;20033;-66
2022/07/30 03:37:51;;;;;;;16.13;6.43;;;28.20;99.90;;;;;;5036357;28;20049;-65
2022/07/30 03:40:18;;;;;;;8.32;5.50;;;28.30;99.90;;;;;;5036218;28;20021;-65
2022/07/30 03:42:46;;;;;;;12.68;6.38;;;28.30;99.90;;;;;;5036451;28;20017;-65
2022/07/30 03:45:13;;;;;;;8.23;6.32;;;28.40;99.90;;;;;;5036796;28;20029;-65
2022/07/30 03:47:42;;;;;;;9.73;5.95;;;28.40;99.90;;;;;;5036039;28;20444;-64
2022/07/30 03:50:09;;;;;;;19.80;6.25;;;28.50;99.90;;;;;;5036112;28;20479;-64
2022/07/30 03:52:39;;;;;;;9.98;6.30;;;28.50;99.90;;;;;;5036551;28;20055;-64
2022/07/30 03:55:08;;;;;;;10.95;6.15;;;28.50;99.90;;;;;;5035940;28;20029;-64
2022/07/30 03:57:36;;;;;;;10.02;5.70;;;28.50;99.90;;;;;;5036014;28;20089;-64
2022/07/30 04:00:07;;;;;;;8.20;5.45;;;28.50;99.90;;;;;;5036004;28;20028;-64
2022/07/30 04:02:41;;;;;;;12.18;6.38;;;28.50;99.90;;;;;;5035707;28;20033;-64
2022/07/30 04:05:08;;;;;;;11.65;6.93;;;28.50;99.90;;;;;;5035908;28;20022;-64
2022/07/30 04:07:34;;;;;;;14.55;7.20;;;28.50;99.90;;;;;;5036193;28;20021;-64
2022/07/30 04:10:01;;;;;;;15.10;6.95;;;28.50;99.90;;;;;;5043638;28;20138;-67
2022/07/30 04:12:28;;;;;;;11.77;5.80;;;28.60;99.90;;;;;;5040295;28;20029;-67
2022/07/30 04:14:56;;;;;;;12.80;6.50;;;28.60;99.90;;;;;;5035577;28;20029;-66
2022/07/30 04:17:39;;;;;;;13.90;7.38;;;28.50;99.90;;;;;;5035322;28;20103;-66
2022/07/30 04:20:15;;;;;;;14.00;7.75;;;28.50;99.90;;;;;;5035562;28;20025;-69
2022/07/30 04:22:43;;;;;;;18.25;8.43;;;28.60;99.90;;;;;;5035453;28;20496;-65
2022/07/30 04:25:10;;;;;;;15.80;8.23;;;28.60;99.90;;;;;;5035503;28;20028;-66
2022/07/30 04:27:38;;;;;;;10.48;6.75;;;28.70;99.90;;;;;;5035230;28;20025;-66
2022/07/30 04:30:05;;;;;;;12.43;7.97;;;28.70;99.90;;;;;;5035325;28;20056;-67
2022/07/30 04:32:33;;;;;;;14.10;7.90;;;28.70;99.90;;;;;;5035357;28;20029;-66
2022/07/30 04:34:59;;;;;;;15.82;8.80;;;28.70;99.90;;;;;;5035537;28;20364;-65
2022/07/30 04:37:26;;;;;;;13.30;8.27;;;28.70;99.90;;;;;;5035698;28;20115;-68
2022/07/30 04:39:54;;;;;;;13.63;8.77;;;28.70;99.90;;;;;;5035976;28;20029;-64
2022/07/30 04:42:21;;;;;;;22.20;15.10;;;28.80;99.90;;;;;;5035683;28;20116;-65
2022/07/30 04:44:48;;;;;;;18.85;10.50;;;28.80;99.90;;;;;;5035533;28;20028;-65
2022/07/30 04:47:16;;;;;;;23.77;14.65;;;28.90;99.90;;;;;;5035626;28;20088;-65
2022/07/30 04:49:44;;;;;;;25.80;17.25;;;28.90;99.90;;;;;;5045710;28;20471;-67
2022/07/30 04:52:11;;;;;;;22.13;12.73;;;29.00;99.90;;;;;;5034823;28;20496;-67
2022/07/30 04:54:49;;;;;;;17.17;9.85;;;29.00;99.90;;;;;;5034734;28;20386;-68
2022/07/30 04:57:18;;;;;;;12.30;7.88;;;29.00;99.90;;;;;;5047215;28;20025;-67
2022/07/30 04:59:45;;;;;;;18.25;12.80;;;29.00;99.90;;;;;;5049597;28;20025;-68
2022/07/30 05:02:14;;;;;;;54.75;41.20;;;29.00;99.90;;;;;;5063669;28;20112;-69
2022/07/30 05:04:41;;;;;;;23.85;16.35;;;29.10;99.90;;;;;;5063534;28;20021;-65
2022/07/30 05:07:12;;;;;;;14.02;9.55;;;29.10;99.90;;;;;;5064181;28;20012;-65
2022/07/30 05:09:39;;;;;;;19.83;11.07;;;29.10;99.90;;;;;;5065417;28;20092;-67
2022/07/30 05:12:06;;;;;;;49.83;31.98;;;29.10;99.90;;;;;;5063666;28;20099;-66
2022/07/30 05:14:32;;;;;;;173.82;116.53;;;29.00;99.90;;;;;;5062960;28;20020;-66
2022/07/30 05:16:59;;;;;;;100.90;64.07;;;29.10;99.90;;;;;;5059101;28;20056;-65
2022/07/30 05:19:25;;;;;;;80.00;52.55;;;29.10;99.90;;;;;;5065017;28;20078;-70
2022/07/30 05:21:52;;;;;;;45.78;33.55;;;29.10;99.90;;;;;;5061209;28;20388;-64
2022/07/30 05:24:19;;;;;;;59.10;40.20;;;29.10;99.90;;;;;;5062976;28;20025;-64
2022/07/30 05:26:46;;;;;;;24.55;14.15;;;29.10;99.90;;;;;;5062378;28;20029;-63
2022/07/30 05:29:12;;;;;;;25.70;8.70;;;29.10;99.90;;;;;;5060180;28;20013;-63
2022/07/30 05:31:39;;;;;;;15.27;6.72;;;29.10;99.90;;;;;;5064482;28;20036;-63
2022/07/30 05:34:06;;;;;;;10.88;7.20;;;29.10;99.90;;;;;;5055644;28;20025;-64
2022/07/30 05:36:33;;;;;;;11.30;7.13;;;29.20;99.90;;;;;;5054611;28;20109;-65
2022/07/30 05:39:00;;;;;;;12.05;6.93;;;29.20;99.90;;;;;;5054042;28;20080;-65
2022/07/30 05:41:30;;;;;;;18.02;8.80;;;29.20;99.90;;;;;;5046788;28;20128;-66
2022/07/30 05:43:56;;;;;;;17.40;10.38;;;29.20;99.90;;;;;;5055218;28;20021;-67
2022/07/30 05:46:23;;;;;;;17.15;9.80;;;29.20;99.90;;;;;;5053845;28;20020;-65
2022/07/30 05:48:50;;;;;;;12.52;8.40;;;29.20;99.90;;;;;;5055721;28;20067;-65
2022/07/30 05:51:18;;;;;;;20.58;9.20;;;29.20;99.90;;;;;;5054667;28;20017;-67
2022/07/30 05:53:45;;;;;;;290.25;204.07;;;29.20;99.90;;;;;;5054747;28;20067;-67
2022/07/30 05:56:11;;;;;;;173.65;119.03;;;29.20;99.90;;;;;;5066330;28;20108;-65
2022/07/30 05:58:38;;;;;;;25.50;18.10;;;29.20;99.90;;;;;;5074822;28;20025;-66
2022/07/30 06:01:04;;;;;;;19.52;9.38;;;29.20;99.90;;;;;;5073696;28;20474;-66
2022/07/30 06:03:31;;;;;;;14.77;7.88;;;29.10;99.90;;;;;;5073383;28;20476;-66
2022/07/30 06:05:57;;;;;;;13.05;7.30;;;29.10;99.90;;;;;;5073337;28;20063;-66
2022/07/30 06:08:24;;;;;;;14.70;8.32;;;29.10;99.90;;;;;;5073561;28;20108;-66
2022/07/30 06:10:51;;;;;;;17.30;8.65;;;29.20;99.90;;;;;;5073385;28;20017;-66
2022/07/30 06:13:17;;;;;;;13.95;7.78;;;29.20;99.90;;;;;;5073424;28;20044;-64
2022/07/30 06:15:43;;;;;;;14.75;8.30;;;29.20;99.90;;;;;;5070927;28;20021;-64
2022/07/30 06:18:10;;;;;;;13.70;8.55;;;29.20;99.90;;;;;;5060820;28;20017;-63
2022/07/30 06:20:36;;;;;;;12.38;5.97;;;29.20;99.90;;;;;;5053866;28;20017;-63
2022/07/30 06:23:03;;;;;;;15.98;7.40;;;29.30;99.90;;;;;;5053304;28;20029;-63
2022/07/30 06:25:30;;;;;;;13.57;6.05;;;29.30;99.90;;;;;;5053168;28;20049;-62
2022/07/30 06:27:56;;;;;;;10.80;6.60;;;29.20;99.90;;;;;;5053267;28;20100;-62
2022/07/30 06:30:23;;;;;;;20.98;7.75;;;29.20;99.90;;;;;;5053341;28;20017;-62
2022/07/30 06:32:49;;;;;;;12.50;7.78;;;29.20;99.90;;;;;;5053098;28;20025;-63
2022/07/30 06:35:16;;;;;;;15.57;7.43;;;29.20;99.90;;;;;;5053103;28;20025;-63
2022/07/30 06:37:43;;;;;;;11.10;6.68;;;29.20;99.90;;;;;;5053059;28;20489;-63
2022/07/30 06:40:10;;;;;;;15.70;7.60;;;29.20;99.90;;;;;;5053170;28;20029;-63
2022/07/30 06:42:37;;;;;;;14.20;7.30;;;29.20;99.90;;;;;;5052997;28;20592;-63
2022/07/30 06:45:04;;;;;;;25.42;9.25;;;29.30;99.90;;;;;;5053063;28;20037;-63
2022/07/30 06:47:33;;;;;;;18.90;8.25;;;29.30;99.90;;;;;;5052918;28;20399;-63
2022/07/30 06:50:01;;;;;;;22.90;8.30;;;29.30;99.90;;;;;;5052998;28;20040;-63
2022/07/30 06:52:28;;;;;;;16.70;8.77;;;29.30;99.90;;;;;;5053041;28;20099;-63
2022/07/30 06:54:54;;;;;;;16.08;7.45;;;29.30;99.90;;;;;;5052915;28;20413;-62
2022/07/30 06:57:21;;;;;;;19.58;8.05;;;29.30;99.90;;;;;;5053203;28;20059;-62
2022/07/30 06:59:47;;;;;;;11.60;7.07;;;29.40;99.90;;;;;;5052983;28;20029;-62
2022/07/30 07:02:14;;;;;;;12.00;7.30;;;29.40;99.90;;;;;;5052840;28;20094;-61
2022/07/30 07:04:40;;;;;;;11.32;7.43;;;29.40;99.90;;;;;;5052714;28;20096;-63
2022/07/30 07:07:07;;;;;;;40.05;27.27;;;29.40;99.90;;;;;;5052767;28;20021;-64
2022/07/30 07:09:34;;;;;;;96.43;68.25;;;29.40;99.90;;;;;;5053589;28;20055;-63
2022/07/30 07:12:00;;;;;;;29.23;19.23;;;29.30;99.90;;;;;;5056878;28;20033;-63
2022/07/30 07:14:27;;;;;;;11.38;8.07;;;29.40;99.90;;;;;;5071723;28;20043;-62
2022/07/30 07:16:53;;;;;;;16.38;8.10;;;29.40;99.90;;;;;;5076648;28;20033;-62
2022/07/30 07:19:20;;;;;;;20.52;8.10;;;29.40;99.90;;;;;;5076461;28;20133;-62
2022/07/30 07:21:47;;;;;;;12.13;7.82;;;29.30;99.90;;;;;;5076617;28;20020;-63
2022/07/30 07:24:13;;;;;;;189.10;136.40;;;29.40;99.90;;;;;;5076549;28;20017;-62
2022/07/30 07:26:40;;;;;;;104.32;83.22;;;29.40;99.90;;;;;;5076360;28;20045;-63
2022/07/30 07:29:06;;;;;;;21.33;14.88;;;29.40;99.90;;;;;;5075471;28;20032;-62
2022/07/30 07:31:33;;;;;;;12.18;8.38;;;29.40;99.90;;;;;;5076446;28;20031;-61
2022/07/30 07:34:00;;;;;;;12.68;7.45;;;29.50;99.90;;;;;;5076606;28;20481;-62
2022/07/30 07:36:27;;;;;;;15.40;7.38;;;29.50;99.90;;;;;;5076299;28;20049;-62
2022/07/30 07:38:53;;;;;;;17.17;9.20;;;29.50;99.90;;;;;;5076227;28;20091;-63
2022/07/30 07:41:20;;;;;;;13.05;7.78;;;29.40;99.90;;;;;;5076116;28;20041;-62
2022/07/30 07:43:46;;;;;;;12.52;7.80;;;29.40;99.90;;;;;;5076290;28;20020;-63
2022/07/30 07:46:15;;;;;;;14.90;7.60;;;29.50;99.90;;;;;;5076229;28;20025;-63
2022/07/30 07:48:43;;;;;;;13.82;7.35;;;29.50;99.90;;;;;;5075996;28;20025;-62
2022/07/30 07:51:10;;;;;;;14.23;7.88;;;29.50;99.90;;;;;;5076175;28;20025;-62
2022/07/30 07:53:36;;;;;;;14.50;9.27;;;29.60;99.90;;;;;;5076171;28;20028;-62
2022/07/30 07:56:03;;;;;;;17.33;9.57;;;29.50;99.90;;;;;;5076104;28;20017;-62
2022/07/30 07:58:30;;;;;;;22.95;9.57;;;29.50;99.90;;;;;;5076139;28;20021;-63
2022/07/30 08:00:56;;;;;;;12.07;7.43;;;29.50;99.90;;;;;;5076080;28;20500;-62
2022/07/30 08:03:23;;;;;;;15.98;7.47;;;29.50;99.90;;;;;;5075919;28;20032;-62
2022/07/30 08:05:49;;;;;;;12.55;8.02;;;29.50;99.90;;;;;;5075955;28;20027;-62
2022/07/30 08:08:16;;;;;;;14.65;7.43;;;29.50;99.90;;;;;;5075975;28;20082;-62
2022/07/30 08:10:42;;;;;;;14.68;9.32;;;29.50;99.90;;;;;;5075950;28;20047;-62
2022/07/30 08:13:09;;;;;;;13.02;7.68;;;29.60;99.90;;;;;;5075812;28;20111;-62
2022/07/30 08:15:35;;;;;;;16.33;8.45;;;29.70;99.90;;;;;;5075590;28;20568;-62
2022/07/30 08:18:02;;;;;;;15.55;6.57;;;29.70;99.90;;;;;;5075710;28;20068;-62
2022/07/30 08:20:29;;;;;;;17.55;9.50;;;29.70;99.90;;;;;;5075456;28;20111;-62
2022/07/30 08:22:55;;;;;;;14.73;7.30;;;29.70;99.90;;;;;;5075548;28;20028;-62
2022/07/30 08:25:22;;;;;;;13.18;8.30;;;29.70;99.90;;;;;;5075974;28;20044;-62
2022/07/30 08:27:48;;;;;;;15.82;8.55;;;29.60;99.90;;;;;;5075468;28;20024;-62
2022/07/30 08:30:15;;;;;;;20.77;10.00;;;29.60;99.90;;;;;;5075333;28;20027;-63
2022/07/30 08:32:42;;;;;;;17.75;9.55;;;29.70;99.90;;;;;;5075497;28;20430;-62
2022/07/30 08:35:08;;;;;;;32.08;18.73;;;29.70;99.90;;;;;;5075353;28;20074;-63
2022/07/30 08:37:36;;;;;;;24.55;14.75;;;29.70;99.90;;;;;;5075261;28;20048;-62
2022/07/30 08:40:04;;;;;;;26.42;16.75;;;29.70;99.90;;;;;;5075375;28;20385;-61
2022/07/30 08:42:33;;;;;;;32.38;19.25;;;29.70;99.90;;;;;;5075077;28;20033;-63
2022/07/30 08:44:59;;;;;;;32.55;16.98;;;29.70;99.90;;;;;;5075032;28;20044;-64
2022/07/30 08:47:32;;;;;;;23.30;14.38;;;29.60;99.90;;;;;;5074992;28;20500;-61
2022/07/30 08:50:03;;;;;;;92.78;47.72;;;29.60;99.90;;;;;;5075380;28;20024;-66
2022/07/30 08:52:32;;;;;;;51.87;26.50;;;29.60;99.90;;;;;;5075010;28;20028;-62
2022/07/30 08:54:59;;;;;;;25.35;13.65;;;29.70;99.90;;;;;;5074790;28;20253;-62
2022/07/30 08:57:29;;;;;;;25.92;14.15;;;29.70;99.90;;;;;;5075173;28;20082;-62
2022/07/30 08:59:58;;;;;;;26.58;13.20;;;29.70;99.90;;;;;;5074550;28;20082;-62
2022/07/30 09:02:25;;;;;;;26.38;13.48;;;29.70;99.90;;;;;;5074728;28;20028;-61
2022/07/30 09:04:52;;;;;;;21.50;11.55;;;29.70;99.90;;;;;;5074739;28;20508;-62
2022/07/30 09:07:18;;;;;;;16.95;10.00;;;29.70;99.90;;;;;;5074780;28;20024;-62
2022/07/30 09:09:45;;;;;;;28.55;13.88;;;29.80;99.90;;;;;;5074615;28;20024;-63
2022/07/30 09:12:17;;;;;;;23.88;11.65;;;29.80;99.90;;;;;;5074557;28;20032;-62
2022/07/30 09:15:21;;;;;;;43.80;28.80;;;29.80;99.90;;;;;;5074499;28;20017;-63
2022/07/30 09:17:53;;;;;;;24.00;14.73;;;29.80;99.90;;;;;;5072503;28;20111;-62
2022/07/30 09:20:21;;;;;;;28.15;14.82;;;29.80;99.90;;;;;;5074151;28;20021;-64
2022/07/30 09:22:54;;;;;;;33.97;22.25;;;29.90;99.90;;;;;;5074203;28;20025;-64
2022/07/30 09:25:32;;;;;;;27.05;16.15;;;29.90;99.90;;;;;;5074470;28;20024;-64
2022/07/30 09:27:58;;;;;;;21.80;11.02;;;29.90;99.90;;;;;;5074179;28;20095;-63
2022/07/30 09:30:25;;;;;;;18.13;9.63;;;29.90;99.90;;;;;;5074126;28;20024;-63
2022/07/30 09:32:53;;;;;;;16.45;8.80;;;29.80;99.90;;;;;;5073209;28;20032;-64
2022/07/30 09:35:21;;;;;;;16.70;8.45;;;29.90;99.90;;;;;;5073989;28;20523;-62
2022/07/30 09:37:59;;;;;;;24.65;10.80;;;29.90;99.90;;;;;;5073850;28;20124;-62
2022/07/30 09:40:25;;;;;;;28.52;11.80;;;29.90;99.90;;;;;;5074000;28;20575;-62
2022/07/30 09:42:57;;;;;;;16.58;9.70;;;30.00;99.90;;;;;;5073726;28;20500;-62
2022/07/30 09:45:24;;;;;;;19.85;9.48;;;30.00;99.90;;;;;;5073739;28;20028;-61
2022/07/30 09:47:50;;;;;;;19.73;9.13;;;29.90;99.90;;;;;;5073652;28;20032;-62
2022/07/30 09:50:19;;;;;;;19.73;8.98;;;30.00;99.90;;;;;;5073888;28;20017;-61
2022/07/30 09:52:49;;;;;;;19.38;10.63;;;29.90;99.90;;;;;;5073684;28;20030;-62
2022/07/30 09:55:29;;;;;;;20.27;10.25;;;29.90;99.90;;;;;;5073568;28;20032;-62
2022/07/30 09:58:04;;;;;;;37.90;33.60;;;29.90;99.90;;;;;;5073509;28;20078;-63
2022/07/30 10:00:34;;;;;;;21.58;13.25;;;29.90;99.90;;;;;;5073569;28;20028;-63
2022/07/30 10:03:13;;;;;;;22.63;12.30;;;29.90;99.90;;;;;;5041685;28;20433;-63
2022/07/30 10:05:51;;;;;;;22.88;11.50;;;29.90;99.90;;;;;;5038938;28;20104;-63
2022/07/30 10:08:18;;;;;;;21.55;10.55;;;29.90;99.90;;;;;;5053583;28;20043;-63
2022/07/30 10:10:46;;;;;;;22.13;8.43;;;29.90;99.90;;;;;;5053258;28;20029;-63
2022/07/30 10:13:13;;;;;;;23.27;10.27;;;29.90;99.90;;;;;;5053459;28;20032;-62
2022/07/30 10:15:43;;;;;;;18.60;11.07;;;29.80;99.90;;;;;;5053705;28;20473;-63
2022/07/30 10:18:10;;;;;;;21.15;11.00;;;29.90;99.90;;;;;;5053206;28;20436;-62
2022/07/30 10:20:37;;;;;;;27.73;12.50;;;29.90;99.90;;;;;;5040128;28;20390;-62
2022/07/30 10:23:07;;;;;;;22.63;10.35;;;29.90;99.90;;;;;;5033484;28;20436;-63
2022/07/30 10:25:35;;;;;;;18.67;10.07;;;29.90;99.90;;;;;;5033239;28;20079;-63
2022/07/30 10:28:02;;;;;;;29.00;10.60;;;29.90;99.90;;;;;;5033370;28;20496;-63
2022/07/30 10:30:31;;;;;;;19.50;10.13;;;29.80;99.90;;;;;;5033232;28;20029;-63
2022/07/30 10:32:59;;;;;;;20.17;9.73;;;29.80;99.90;;;;;;5048735;28;20087;-63
2022/07/30 10:35:26;;;;;;;40.65;33.90;;;29.80;99.90;;;;;;5053257;28;20029;-63
2022/07/30 10:37:55;;;;;;;77.75;67.07;;;29.70;99.90;;;;;;5053024;28;20069;-62
2022/07/30 10:40:27;;;;;;;38.10;25.05;;;29.80;99.90;;;;;;5053038;28;20047;-63
2022/07/30 10:42:55;;;;;;;18.23;12.77;;;29.80;99.90;;;;;;5053134;28;20033;-63
2022/07/30 10:45:25;;;;;;;20.90;12.18;;;29.80;99.90;;;;;;5059481;28;20029;-63
2022/07/30 10:47:54;;;;;;;23.08;11.82;;;29.80;99.90;;;;;;5059539;28;20078;-64
2022/07/30 10:50:25;;;;;;;29.38;16.27;;;29.90;99.90;;;;;;5059643;28;20033;-64
2022/07/30 10:52:57;;;;;;;49.55;31.70;;;29.90;99.90;;;;;;5059509;28;20086;-63
2022/07/30 10:55:28;;;;;;;73.63;46.00;;;29.90;99.90;;;;;;5059737;28;20025;-63
2022/07/30 10:57:59;;;;;;;59.95;34.85;;;29.80;99.90;;;;;;5059674;28;20032;-63
2022/07/30 11:00:26;;;;;;;58.33;34.90;;;29.70;99.90;;;;;;5059464;28;20111;-63
2022/07/30 11:02:58;;;;;;;64.10;39.53;;;29.80;99.90;;;;;;5059522;28;20569;-63
2022/07/30 11:05:27;;;;;;;93.97;53.63;;;29.70;99.90;;;;;;5059589;28;20116;-64
2022/07/30 11:07:54;;;;;;;98.15;53.63;;;29.70;99.90;;;;;;5059444;28;20056;-63
2022/07/30 11:10:26;;;;;;;115.47;68.88;;;29.70;99.90;;;;;;5059391;28;20025;-63
2022/07/30 11:12:54;;;;;;;94.22;51.72;;;29.70;99.90;;;;;;5059420;28;20427;-63
2022/07/30 11:15:21;;;;;;;103.18;60.85;;;29.60;99.90;;;;;;5059517;28;20470;-64
2022/07/30 11:17:52;;;;;;;113.70;65.93;;;29.50;99.90;;;;;;5059473;28;20489;-63
2022/07/30 11:20:20;;;;;;;85.10;54.67;;;29.60;99.90;;;;;;5059311;28;20025;-63
2022/07/30 11:22:48;;;;;;;166.80;118.75;;;29.60;99.90;;;;;;5059460;28;20489;-63
2022/07/30 11:25:20;;;;;;;178.07;121.53;;;29.60;99.90;;;;;;5059314;28;20031;-63
2022/07/30 11:27:51;;;;;;;416.48;274.00;;;29.60;99.90;;;;;;5058887;28;20017;-64
2022/07/30 11:30:17;;;;;;;189.50;98.93;;;29.50;99.90;;;;;;5058437;28;20119;-63
2022/07/30 11:32:47;;;;;;;105.07;56.50;;;29.50;99.90;;;;;;5059184;28;20397;-66
2022/07/30 11:35:18;;;;;;;108.95;62.72;;;29.50;99.90;;;;;;5058366;28;20040;-64
2022/07/30 11:38:06;;;;;;;172.75;114.63;;;29.50;99.90;;;;;;5059942;28;20133;-62
2022/07/30 11:40:39;;;;;;;137.55;79.68;;;29.50;99.90;;;;;;5059272;28;20384;-63
2022/07/30 11:43:20;;;;;;;106.72;61.00;;;29.50;99.90;;;;;;5060253;28;20069;-63
2022/07/30 11:45:51;;;;;;;111.13;59.13;;;29.50;99.90;;;;;;5061179;28;20020;-62
2022/07/30 11:48:19;;;;;;;97.23;57.73;;;29.50;99.90;;;;;;5060832;28;20029;-62
2022/07/30 11:50:47;;;;;;;96.50;57.85;;;29.40;99.90;;;;;;5060790;28;20399;-61
2022/07/30 11:53:18;;;;;;;96.88;55.33;;;29.40;99.90;;;;;;5061155;28;20075;-62
2022/07/30 11:56:06;;;;;;;94.35;52.35;;;29.30;99.90;;;;;;5058477;28;20040;-62
2022/07/30 11:58:36;;;;;;;78.60;45.88;;;29.40;99.90;;;;;;5057432;28;20113;-63
2022/07/30 12:01:10;;;;;;;90.03;45.58;;;29.40;99.90;;;;;;5057849;28;20029;-62
2022/07/30 12:03:41;;;;;;;77.18;43.25;;;29.30;99.90;;;;;;5059667;28;20127;-63
2022/07/30 12:06:12;;;;;;;93.18;49.25;;;29.30;99.90;;;;;;5058854;28;20013;-64
2022/07/30 12:08:44;;;;;;;122.50;59.63;;;29.20;99.90;;;;;;5057012;28;20025;-63
2022/07/30 12:11:11;;;;;;;123.55;59.22;;;29.10;99.90;;;;;;5051035;28;20371;-63
2022/07/30 12:13:39;;;;;;;107.05;54.30;;;29.10;99.90;;;;;;5064347;28;20021;-63
2022/07/30 12:16:10;;;;;;;114.15;65.03;;;29.20;99.90;;;;;;5066124;28;20025;-65
2022/07/30 12:18:38;;;;;;;107.20;59.40;;;29.20;99.90;;;;;;5061830;28;20023;-65
2022/07/30 12:21:07;;;;;;;110.13;59.60;;;29.20;99.90;;;;;;5063662;28;20025;-65
2022/07/30 12:23:35;;;;;;;150.63;95.22;;;29.20;99.90;;;;;;5056846;28;20048;-63
2022/07/30 12:26:02;;;;;;;94.95;52.55;;;29.20;99.90;;;;;;5055663;28;20029;-68
2022/07/30 12:28:31;;;;;;;98.38;48.95;;;29.10;99.90;;;;;;5055549;28;20024;-68
2022/07/30 12:31:01;;;;;;;105.90;56.55;;;29.10;99.90;;;;;;5063171;28;20032;-69
2022/07/30 12:33:28;;;;;;;95.88;53.65;;;29.10;99.90;;;;;;5065080;28;20024;-68
2022/07/30 12:35:59;;;;;;;109.88;57.47;;;29.10;99.90;;;;;;5064631;28;20454;-68
2022/07/30 12:38:28;;;;;;;120.13;65.32;;;29.10;99.90;;;;;;5062513;28;20040;-66